sensor_id;sensor_type;location;lat;lon;timestamp;P1;durP1;ratioP1;P2;durP2;ratioP2
64197;SDS011;50512;53.666;9.700;2024-03-08T00:00:45;45.15;;;18.70;;
64197;SDS011;50512;53.666;9.700;2024-03-08T00:03:12;39.13;;;16.80;;
64197;SDS011;50512;53.666;9.700;2024-03-08T00:05:38;41.28;;;17.25;;
64197;SDS011;50512;53.666;9.700;2024-03-08T00:08:05;43.22;;;18.55;;
64197;SDS011;50512;53.666;9.700;2024-03-08T00:10:35;41.17;;;18.02;;
64197;SDS011;50512;53.666;9.700;2024-03-08T00:13:03;46.38;;;18.90;;
64197;SDS011;50512;53.666;9.700;2024-03-08T00:15:30;48.10;;;17.55;;
64197;SDS011;50512;53.666;9.700;2024-03-08T00:17:57;46.78;;;18.35;;
64197;SDS011;50512;53.666;9.700;2024-03-08T00:20:24;45.05;;;18.17;;
64197;SDS011;50512;53.666;9.700;2024-03-08T00:22:50;40.08;;;17.63;;
64197;SDS011;50512;53.666;9.700;2024-03-08T00:25:17;37.97;;;16.90;;
64197;SDS011;50512;53.666;9.700;2024-03-08T00:27:43;42.33;;;18.13;;
64197;SDS011;50512;53.666;9.700;2024-03-08T00:30:11;39.97;;;16.10;;
64197;SDS011;50512;53.666;9.700;2024-03-08T00:32:39;42.45;;;16.90;;
64197;SDS011;50512;53.666;9.700;2024-03-08T00:35:06;45.08;;;17.60;;
64197;SDS011;50512;53.666;9.700;2024-03-08T00:37:33;35.80;;;15.00;;
64197;SDS011;50512;53.666;9.700;2024-03-08T00:40:00;45.65;;;17.70;;
64197;SDS011;50512;53.666;9.700;2024-03-08T00:42:27;43.75;;;17.63;;
64197;SDS011;50512;53.666;9.700;2024-03-08T00:44:53;42.67;;;17.50;;
64197;SDS011;50512;53.666;9.700;2024-03-08T00:47:21;41.58;;;17.17;;
64197;SDS011;50512;53.666;9.700;2024-03-08T00:49:47;44.75;;;16.45;;
64197;SDS011;50512;53.666;9.700;2024-03-08T00:52:14;37.58;;;17.02;;
64197;SDS011;50512;53.666;9.700;2024-03-08T00:54:40;36.47;;;17.17;;
64197;SDS011;50512;53.666;9.700;2024-03-08T00:57:08;37.42;;;16.95;;
64197;SDS011;50512;53.666;9.700;2024-03-08T00:59:34;37.85;;;16.48;;
64197;SDS011;50512;53.666;9.700;2024-03-08T01:02:00;37.35;;;15.27;;
64197;SDS011;50512;53.666;9.700;2024-03-08T01:04:29;43.55;;;17.58;;
64197;SDS011;50512;53.666;9.700;2024-03-08T01:06:55;44.80;;;17.83;;
64197;SDS011;50512;53.666;9.700;2024-03-08T01:09:22;39.75;;;17.75;;
64197;SDS011;50512;53.666;9.700;2024-03-08T01:11:48;41.70;;;18.02;;
64197;SDS011;50512;53.666;9.700;2024-03-08T01:14:15;40.00;;;17.02;;
64197;SDS011;50512;53.666;9.700;2024-03-08T01:16:42;38.65;;;17.00;;
64197;SDS011;50512;53.666;9.700;2024-03-08T01:19:08;38.75;;;15.95;;
64197;SDS011;50512;53.666;9.700;2024-03-08T01:21:36;41.63;;;16.50;;
64197;SDS011;50512;53.666;9.700;2024-03-08T01:24:03;40.90;;;16.17;;
64197;SDS011;50512;53.666;9.700;2024-03-08T01:26:29;40.10;;;16.27;;
64197;SDS011;50512;53.666;9.700;2024-03-08T01:28:56;37.13;;;15.10;;
64197;SDS011;50512;53.666;9.700;2024-03-08T01:31:22;33.22;;;14.63;;
64197;SDS011;50512;53.666;9.700;2024-03-08T01:33:49;41.22;;;17.17;;
64197;SDS011;50512;53.666;9.700;2024-03-08T01:36:15;40.38;;;16.35;;
64197;SDS011;50512;53.666;9.700;2024-03-08T01:38:45;47.17;;;19.08;;
64197;SDS011;50512;53.666;9.700;2024-03-08T01:41:12;47.40;;;16.83;;
64197;SDS011;50512;53.666;9.700;2024-03-08T01:43:39;45.70;;;17.08;;
64197;SDS011;50512;53.666;9.700;2024-03-08T01:46:05;37.13;;;16.48;;
64197;SDS011;50512;53.666;9.700;2024-03-08T01:48:33;39.78;;;16.92;;
64197;SDS011;50512;53.666;9.700;2024-03-08T01:51:00;38.35;;;16.58;;
64197;SDS011;50512;53.666;9.700;2024-03-08T01:53:27;47.28;;;16.50;;
64197;SDS011;50512;53.666;9.700;2024-03-08T01:55:57;37.15;;;17.15;;
64197;SDS011;50512;53.666;9.700;2024-03-08T01:58:24;38.80;;;14.85;;
64197;SDS011;50512;53.666;9.700;2024-03-08T02:00:53;43.03;;;18.60;;
64197;SDS011;50512;53.666;9.700;2024-03-08T02:03:20;39.92;;;16.98;;
64197;SDS011;50512;53.666;9.700;2024-03-08T02:05:47;42.08;;;17.67;;
64197;SDS011;50512;53.666;9.700;2024-03-08T02:08:16;39.13;;;16.10;;
64197;SDS011;50512;53.666;9.700;2024-03-08T02:10:43;43.80;;;17.38;;
64197;SDS011;50512;53.666;9.700;2024-03-08T02:13:12;45.45;;;17.52;;
64197;SDS011;50512;53.666;9.700;2024-03-08T02:15:51;43.13;;;16.73;;
64197;SDS011;50512;53.666;9.700;2024-03-08T02:18:18;44.72;;;17.83;;
64197;SDS011;50512;53.666;9.700;2024-03-08T02:20:46;45.33;;;18.33;;
64197;SDS011;50512;53.666;9.700;2024-03-08T02:23:13;39.03;;;16.92;;
64197;SDS011;50512;53.666;9.700;2024-03-08T02:25:40;44.13;;;17.45;;
64197;SDS011;50512;53.666;9.700;2024-03-08T02:28:07;38.58;;;17.60;;
64197;SDS011;50512;53.666;9.700;2024-03-08T02:30:35;53.22;;;19.95;;
64197;SDS011;50512;53.666;9.700;2024-03-08T02:33:01;41.65;;;17.45;;
64197;SDS011;50512;53.666;9.700;2024-03-08T02:35:28;39.13;;;17.10;;
64197;SDS011;50512;53.666;9.700;2024-03-08T02:37:56;45.85;;;17.48;;
64197;SDS011;50512;53.666;9.700;2024-03-08T02:40:23;44.58;;;17.65;;
64197;SDS011;50512;53.666;9.700;2024-03-08T02:42:49;49.58;;;18.15;;
64197;SDS011;50512;53.666;9.700;2024-03-08T02:45:16;45.15;;;17.20;;
64197;SDS011;50512;53.666;9.700;2024-03-08T02:47:42;44.78;;;17.52;;
64197;SDS011;50512;53.666;9.700;2024-03-08T02:50:09;46.72;;;17.88;;
64197;SDS011;50512;53.666;9.700;2024-03-08T02:52:36;46.83;;;18.25;;
64197;SDS011;50512;53.666;9.700;2024-03-08T02:55:05;47.58;;;16.95;;
64197;SDS011;50512;53.666;9.700;2024-03-08T02:57:33;41.78;;;16.38;;
64197;SDS011;50512;53.666;9.700;2024-03-08T02:59:59;49.70;;;19.25;;
64197;SDS011;50512;53.666;9.700;2024-03-08T03:02:26;47.03;;;18.00;;
64197;SDS011;50512;53.666;9.700;2024-03-08T03:04:52;50.80;;;19.08;;
64197;SDS011;50512;53.666;9.700;2024-03-08T03:07:20;45.72;;;18.52;;
64197;SDS011;50512;53.666;9.700;2024-03-08T03:09:47;50.20;;;17.73;;
64197;SDS011;50512;53.666;9.700;2024-03-08T03:12:15;40.55;;;17.70;;
64197;SDS011;50512;53.666;9.700;2024-03-08T03:14:41;49.00;;;18.00;;
64197;SDS011;50512;53.666;9.700;2024-03-08T03:17:08;47.50;;;18.42;;
64197;SDS011;50512;53.666;9.700;2024-03-08T03:19:35;51.03;;;18.08;;
64197;SDS011;50512;53.666;9.700;2024-03-08T03:22:01;44.10;;;17.40;;
64197;SDS011;50512;53.666;9.700;2024-03-08T03:24:28;52.97;;;18.90;;
64197;SDS011;50512;53.666;9.700;2024-03-08T03:26:55;45.90;;;17.60;;
64197;SDS011;50512;53.666;9.700;2024-03-08T03:29:23;45.72;;;19.33;;
64197;SDS011;50512;53.666;9.700;2024-03-08T03:31:50;51.00;;;18.92;;
64197;SDS011;50512;53.666;9.700;2024-03-08T03:34:17;47.90;;;18.30;;
64197;SDS011;50512;53.666;9.700;2024-03-08T03:36:44;49.65;;;18.75;;
64197;SDS011;50512;53.666;9.700;2024-03-08T03:39:12;51.72;;;19.75;;
64197;SDS011;50512;53.666;9.700;2024-03-08T03:41:41;52.13;;;18.92;;
64197;SDS011;50512;53.666;9.700;2024-03-08T03:44:09;49.40;;;19.80;;
64197;SDS011;50512;53.666;9.700;2024-03-08T03:46:37;50.75;;;16.17;;
64197;SDS011;50512;53.666;9.700;2024-03-08T03:49:09;46.85;;;17.58;;
64197;SDS011;50512;53.666;9.700;2024-03-08T03:51:35;45.67;;;17.90;;
64197;SDS011;50512;53.666;9.700;2024-03-08T03:54:02;50.00;;;18.58;;
64197;SDS011;50512;53.666;9.700;2024-03-08T03:56:29;50.88;;;20.40;;
64197;SDS011;50512;53.666;9.700;2024-03-08T03:58:56;46.05;;;19.05;;
64197;SDS011;50512;53.666;9.700;2024-03-08T04:01:23;47.92;;;18.52;;
64197;SDS011;50512;53.666;9.700;2024-03-08T04:03:51;48.03;;;18.30;;
64197;SDS011;50512;53.666;9.700;2024-03-08T04:06:17;46.20;;;19.08;;
64197;SDS011;50512;53.666;9.700;2024-03-08T04:08:43;52.20;;;19.55;;
64197;SDS011;50512;53.666;9.700;2024-03-08T04:11:10;46.10;;;17.60;;
64197;SDS011;50512;53.666;9.700;2024-03-08T04:13:36;50.65;;;18.15;;
64197;SDS011;50512;53.666;9.700;2024-03-08T04:16:03;45.05;;;18.58;;
64197;SDS011;50512;53.666;9.700;2024-03-08T04:18:33;54.17;;;18.77;;
64197;SDS011;50512;53.666;9.700;2024-03-08T04:21:02;50.20;;;19.05;;
64197;SDS011;50512;53.666;9.700;2024-03-08T04:23:31;54.17;;;17.70;;
64197;SDS011;50512;53.666;9.700;2024-03-08T04:26:00;49.88;;;19.02;;
64197;SDS011;50512;53.666;9.700;2024-03-08T04:28:27;53.60;;;18.25;;
64197;SDS011;50512;53.666;9.700;2024-03-08T04:30:53;50.45;;;19.08;;
64197;SDS011;50512;53.666;9.700;2024-03-08T04:33:20;51.40;;;19.15;;
64197;SDS011;50512;53.666;9.700;2024-03-08T04:35:46;49.05;;;18.30;;
64197;SDS011;50512;53.666;9.700;2024-03-08T04:38:14;55.83;;;19.38;;
64197;SDS011;50512;53.666;9.700;2024-03-08T04:40:41;44.92;;;18.00;;
64197;SDS011;50512;53.666;9.700;2024-03-08T04:43:08;47.63;;;16.83;;
64197;SDS011;50512;53.666;9.700;2024-03-08T04:45:35;51.08;;;19.17;;
64197;SDS011;50512;53.666;9.700;2024-03-08T04:48:02;51.53;;;18.70;;
64197;SDS011;50512;53.666;9.700;2024-03-08T04:50:28;53.95;;;20.95;;
64197;SDS011;50512;53.666;9.700;2024-03-08T04:52:55;52.03;;;18.77;;
64197;SDS011;50512;53.666;9.700;2024-03-08T04:55:23;45.38;;;15.02;;
64197;SDS011;50512;53.666;9.700;2024-03-08T04:57:50;45.30;;;19.60;;
64197;SDS011;50512;53.666;9.700;2024-03-08T05:00:16;53.53;;;19.35;;
64197;SDS011;50512;53.666;9.700;2024-03-08T05:02:43;53.45;;;19.67;;
64197;SDS011;50512;53.666;9.700;2024-03-08T05:05:09;54.38;;;19.90;;
64197;SDS011;50512;53.666;9.700;2024-03-08T05:07:37;63.25;;;19.40;;
64197;SDS011;50512;53.666;9.700;2024-03-08T05:10:04;54.15;;;19.42;;
64197;SDS011;50512;53.666;9.700;2024-03-08T05:12:33;53.85;;;19.33;;
64197;SDS011;50512;53.666;9.700;2024-03-08T05:14:59;52.47;;;20.08;;
64197;SDS011;50512;53.666;9.700;2024-03-08T05:17:26;48.97;;;18.70;;
64197;SDS011;50512;53.666;9.700;2024-03-08T05:19:53;55.60;;;18.63;;
64197;SDS011;50512;53.666;9.700;2024-03-08T05:22:19;48.90;;;20.75;;
64197;SDS011;50512;53.666;9.700;2024-03-08T05:24:45;51.67;;;18.23;;
64197;SDS011;50512;53.666;9.700;2024-03-08T05:27:12;53.35;;;19.52;;
64197;SDS011;50512;53.666;9.700;2024-03-08T05:29:40;50.35;;;18.63;;
64197;SDS011;50512;53.666;9.700;2024-03-08T05:32:07;52.05;;;19.50;;
64197;SDS011;50512;53.666;9.700;2024-03-08T05:34:34;54.38;;;18.92;;
64197;SDS011;50512;53.666;9.700;2024-03-08T05:37:01;58.13;;;19.88;;
64197;SDS011;50512;53.666;9.700;2024-03-08T05:39:27;48.42;;;18.67;;
64197;SDS011;50512;53.666;9.700;2024-03-08T05:41:54;52.20;;;19.42;;
64197;SDS011;50512;53.666;9.700;2024-03-08T05:44:21;55.17;;;18.88;;
64197;SDS011;50512;53.666;9.700;2024-03-08T05:46:49;53.58;;;18.75;;
64197;SDS011;50512;53.666;9.700;2024-03-08T05:49:15;46.65;;;19.30;;
64197;SDS011;50512;53.666;9.700;2024-03-08T05:51:42;50.83;;;18.85;;
64197;SDS011;50512;53.666;9.700;2024-03-08T05:54:09;49.75;;;18.25;;
64197;SDS011;50512;53.666;9.700;2024-03-08T05:56:36;43.45;;;16.98;;
64197;SDS011;50512;53.666;9.700;2024-03-08T05:59:03;48.88;;;17.50;;
64197;SDS011;50512;53.666;9.700;2024-03-08T06:01:30;52.72;;;18.45;;
64197;SDS011;50512;53.666;9.700;2024-03-08T06:03:58;56.05;;;18.45;;
64197;SDS011;50512;53.666;9.700;2024-03-08T06:06:24;44.47;;;16.38;;
64197;SDS011;50512;53.666;9.700;2024-03-08T06:08:51;45.28;;;18.52;;
64197;SDS011;50512;53.666;9.700;2024-03-08T06:11:19;42.22;;;17.63;;
64197;SDS011;50512;53.666;9.700;2024-03-08T06:13:46;49.28;;;18.98;;
64197;SDS011;50512;53.666;9.700;2024-03-08T06:16:13;47.17;;;18.30;;
64197;SDS011;50512;53.666;9.700;2024-03-08T06:18:39;46.90;;;17.60;;
64197;SDS011;50512;53.666;9.700;2024-03-08T06:21:08;51.67;;;19.77;;
64197;SDS011;50512;53.666;9.700;2024-03-08T06:23:36;49.33;;;18.35;;
64197;SDS011;50512;53.666;9.700;2024-03-08T06:26:03;55.70;;;18.67;;
64197;SDS011;50512;53.666;9.700;2024-03-08T06:28:30;43.00;;;18.17;;
64197;SDS011;50512;53.666;9.700;2024-03-08T06:30:57;52.40;;;18.98;;
64197;SDS011;50512;53.666;9.700;2024-03-08T06:33:24;51.22;;;18.35;;
64197;SDS011;50512;53.666;9.700;2024-03-08T06:35:51;53.75;;;20.13;;
64197;SDS011;50512;53.666;9.700;2024-03-08T06:38:19;49.78;;;17.48;;
64197;SDS011;50512;53.666;9.700;2024-03-08T06:40:45;44.80;;;18.70;;
64197;SDS011;50512;53.666;9.700;2024-03-08T06:43:13;51.88;;;18.00;;
64197;SDS011;50512;53.666;9.700;2024-03-08T06:45:41;52.08;;;19.23;;
64197;SDS011;50512;53.666;9.700;2024-03-08T06:48:10;53.45;;;19.23;;
64197;SDS011;50512;53.666;9.700;2024-03-08T06:50:37;56.30;;;19.08;;
64197;SDS011;50512;53.666;9.700;2024-03-08T06:53:04;48.42;;;17.05;;
64197;SDS011;50512;53.666;9.700;2024-03-08T06:55:32;51.72;;;20.17;;
64197;SDS011;50512;53.666;9.700;2024-03-08T06:57:59;55.17;;;17.73;;
64197;SDS011;50512;53.666;9.700;2024-03-08T07:00:25;45.60;;;17.08;;
64197;SDS011;50512;53.666;9.700;2024-03-08T07:02:53;52.20;;;20.15;;
64197;SDS011;50512;53.666;9.700;2024-03-08T07:05:20;48.28;;;18.80;;
64197;SDS011;50512;53.666;9.700;2024-03-08T07:07:46;49.70;;;18.98;;
64197;SDS011;50512;53.666;9.700;2024-03-08T07:10:14;54.10;;;19.58;;
64197;SDS011;50512;53.666;9.700;2024-03-08T07:12:43;52.45;;;19.90;;
64197;SDS011;50512;53.666;9.700;2024-03-08T07:15:09;46.60;;;18.92;;
64197;SDS011;50512;53.666;9.700;2024-03-08T07:17:38;52.75;;;20.42;;
64197;SDS011;50512;53.666;9.700;2024-03-08T07:20:05;55.42;;;20.33;;
64197;SDS011;50512;53.666;9.700;2024-03-08T07:22:37;50.63;;;19.27;;
64197;SDS011;50512;53.666;9.700;2024-03-08T07:25:04;49.33;;;18.63;;
64197;SDS011;50512;53.666;9.700;2024-03-08T07:27:46;45.17;;;17.92;;
64197;SDS011;50512;53.666;9.700;2024-03-08T07:30:13;48.85;;;20.23;;
64197;SDS011;50512;53.666;9.700;2024-03-08T07:33:00;46.83;;;17.35;;
64197;SDS011;50512;53.666;9.700;2024-03-08T07:35:27;39.83;;;17.80;;
64197;SDS011;50512;53.666;9.700;2024-03-08T07:37:53;37.90;;;17.58;;
64197;SDS011;50512;53.666;9.700;2024-03-08T07:40:20;44.25;;;18.58;;
64197;SDS011;50512;53.666;9.700;2024-03-08T07:42:49;44.10;;;17.35;;
64197;SDS011;50512;53.666;9.700;2024-03-08T07:45:15;40.50;;;16.60;;
64197;SDS011;50512;53.666;9.700;2024-03-08T07:47:42;35.97;;;15.02;;
64197;SDS011;50512;53.666;9.700;2024-03-08T07:50:09;29.45;;;14.27;;
64197;SDS011;50512;53.666;9.700;2024-03-08T07:52:36;39.17;;;15.98;;
64197;SDS011;50512;53.666;9.700;2024-03-08T07:55:02;35.58;;;14.07;;
64197;SDS011;50512;53.666;9.700;2024-03-08T07:57:30;37.45;;;15.75;;
64197;SDS011;50512;53.666;9.700;2024-03-08T07:59:58;41.85;;;18.05;;
64197;SDS011;50512;53.666;9.700;2024-03-08T08:02:24;39.40;;;16.95;;
64197;SDS011;50512;53.666;9.700;2024-03-08T08:04:51;31.08;;;11.75;;
64197;SDS011;50512;53.666;9.700;2024-03-08T08:07:17;35.80;;;15.52;;
64197;SDS011;50512;53.666;9.700;2024-03-08T08:09:44;39.00;;;16.17;;
64197;SDS011;50512;53.666;9.700;2024-03-08T08:12:10;36.97;;;15.10;;
64197;SDS011;50512;53.666;9.700;2024-03-08T08:14:37;28.45;;;11.82;;
64197;SDS011;50512;53.666;9.700;2024-03-08T08:17:05;35.42;;;15.02;;
64197;SDS011;50512;53.666;9.700;2024-03-08T08:19:33;34.65;;;14.35;;
64197;SDS011;50512;53.666;9.700;2024-03-08T08:22:00;38.45;;;16.48;;
64197;SDS011;50512;53.666;9.700;2024-03-08T08:24:28;32.20;;;15.73;;
64197;SDS011;50512;53.666;9.700;2024-03-08T08:26:54;34.70;;;16.00;;
64197;SDS011;50512;53.666;9.700;2024-03-08T08:29:21;34.65;;;15.90;;
64197;SDS011;50512;53.666;9.700;2024-03-08T08:31:47;38.05;;;16.65;;
64197;SDS011;50512;53.666;9.700;2024-03-08T08:34:16;31.05;;;15.13;;
64197;SDS011;50512;53.666;9.700;2024-03-08T08:36:44;37.47;;;14.82;;
64197;SDS011;50512;53.666;9.700;2024-03-08T08:39:11;32.58;;;14.82;;
64197;SDS011;50512;53.666;9.700;2024-03-08T08:41:38;31.58;;;14.30;;
64197;SDS011;50512;53.666;9.700;2024-03-08T08:44:06;24.83;;;11.27;;
64197;SDS011;50512;53.666;9.700;2024-03-08T08:46:34;30.95;;;15.13;;
64197;SDS011;50512;53.666;9.700;2024-03-08T08:49:02;33.10;;;15.13;;
64197;SDS011;50512;53.666;9.700;2024-03-08T08:51:30;32.67;;;14.88;;
64197;SDS011;50512;53.666;9.700;2024-03-08T08:53:58;32.50;;;15.18;;
64197;SDS011;50512;53.666;9.700;2024-03-08T08:56:25;34.20;;;16.15;;
64197;SDS011;50512;53.666;9.700;2024-03-08T08:58:53;33.08;;;16.02;;
64197;SDS011;50512;53.666;9.700;2024-03-08T09:01:20;31.80;;;14.43;;
64197;SDS011;50512;53.666;9.700;2024-03-08T09:03:46;36.30;;;15.85;;
64197;SDS011;50512;53.666;9.700;2024-03-08T09:06:13;31.65;;;14.80;;
64197;SDS011;50512;53.666;9.700;2024-03-08T09:08:41;33.63;;;14.88;;
64197;SDS011;50512;53.666;9.700;2024-03-08T09:11:09;34.78;;;16.13;;
64197;SDS011;50512;53.666;9.700;2024-03-08T09:13:35;33.03;;;15.43;;
64197;SDS011;50512;53.666;9.700;2024-03-08T09:16:03;34.88;;;15.95;;
64197;SDS011;50512;53.666;9.700;2024-03-08T09:18:31;38.13;;;15.52;;
64197;SDS011;50512;53.666;9.700;2024-03-08T09:20:58;33.40;;;15.07;;
64197;SDS011;50512;53.666;9.700;2024-03-08T09:23:25;30.98;;;13.40;;
64197;SDS011;50512;53.666;9.700;2024-03-08T09:25:56;32.72;;;15.95;;
64197;SDS011;50512;53.666;9.700;2024-03-08T09:28:23;34.78;;;16.20;;
64197;SDS011;50512;53.666;9.700;2024-03-08T09:30:49;36.70;;;16.70;;
64197;SDS011;50512;53.666;9.700;2024-03-08T09:33:16;35.92;;;16.75;;
64197;SDS011;50512;53.666;9.700;2024-03-08T09:35:44;36.58;;;15.73;;
64197;SDS011;50512;53.666;9.700;2024-03-08T09:38:11;32.00;;;16.17;;
64197;SDS011;50512;53.666;9.700;2024-03-08T09:40:38;31.30;;;15.38;;
64197;SDS011;50512;53.666;9.700;2024-03-08T09:43:06;33.97;;;14.68;;
64197;SDS011;50512;53.666;9.700;2024-03-08T09:45:34;33.40;;;14.48;;
64197;SDS011;50512;53.666;9.700;2024-03-08T09:48:04;34.03;;;15.57;;
64197;SDS011;50512;53.666;9.700;2024-03-08T09:50:33;35.83;;;16.42;;
64197;SDS011;50512;53.666;9.700;2024-03-08T09:53:00;35.65;;;16.00;;
64197;SDS011;50512;53.666;9.700;2024-03-08T09:55:27;31.38;;;14.23;;
64197;SDS011;50512;53.666;9.700;2024-03-08T09:57:59;28.05;;;13.73;;
64197;SDS011;50512;53.666;9.700;2024-03-08T10:01:02;31.23;;;13.30;;
64197;SDS011;50512;53.666;9.700;2024-03-08T10:03:29;30.02;;;13.55;;
64197;SDS011;50512;53.666;9.700;2024-03-08T10:05:57;32.15;;;14.02;;
64197;SDS011;50512;53.666;9.700;2024-03-08T10:08:25;36.25;;;16.40;;
64197;SDS011;50512;53.666;9.700;2024-03-08T10:10:51;28.88;;;13.32;;
64197;SDS011;50512;53.666;9.700;2024-03-08T10:13:18;32.42;;;15.23;;
64197;SDS011;50512;53.666;9.700;2024-03-08T10:15:45;26.02;;;11.88;;
64197;SDS011;50512;53.666;9.700;2024-03-08T10:18:13;30.65;;;13.27;;
64197;SDS011;50512;53.666;9.700;2024-03-08T10:20:39;22.77;;;11.18;;
64197;SDS011;50512;53.666;9.700;2024-03-08T10:23:06;29.35;;;14.18;;
64197;SDS011;50512;53.666;9.700;2024-03-08T10:25:35;36.40;;;14.40;;
64197;SDS011;50512;53.666;9.700;2024-03-08T10:28:02;30.35;;;13.75;;
64197;SDS011;50512;53.666;9.700;2024-03-08T10:30:31;28.58;;;12.52;;
64197;SDS011;50512;53.666;9.700;2024-03-08T10:32:58;28.20;;;11.98;;
64197;SDS011;50512;53.666;9.700;2024-03-08T10:35:25;23.63;;;11.18;;
64197;SDS011;50512;53.666;9.700;2024-03-08T10:37:52;36.42;;;15.70;;
64197;SDS011;50512;53.666;9.700;2024-03-08T10:40:24;29.02;;;15.50;;
64197;SDS011;50512;53.666;9.700;2024-03-08T10:42:52;28.80;;;13.13;;
64197;SDS011;50512;53.666;9.700;2024-03-08T10:45:23;22.90;;;11.95;;
64197;SDS011;50512;53.666;9.700;2024-03-08T10:47:59;25.80;;;10.95;;
64197;SDS011;50512;53.666;9.700;2024-03-08T10:50:36;27.40;;;11.10;;
64197;SDS011;50512;53.666;9.700;2024-03-08T10:53:04;23.67;;;10.85;;
64197;SDS011;50512;53.666;9.700;2024-03-08T10:55:33;26.20;;;12.70;;
64197;SDS011;50512;53.666;9.700;2024-03-08T10:58:00;24.65;;;12.75;;
64197;SDS011;50512;53.666;9.700;2024-03-08T11:00:26;25.55;;;12.25;;
64197;SDS011;50512;53.666;9.700;2024-03-08T11:02:53;21.73;;;11.73;;
64197;SDS011;50512;53.666;9.700;2024-03-08T11:05:31;26.67;;;12.35;;
64197;SDS011;50512;53.666;9.700;2024-03-08T11:08:01;25.08;;;10.88;;
64197;SDS011;50512;53.666;9.700;2024-03-08T11:10:29;30.40;;;16.17;;
64197;SDS011;50512;53.666;9.700;2024-03-08T11:12:56;30.05;;;12.00;;
64197;SDS011;50512;53.666;9.700;2024-03-08T11:15:23;25.40;;;9.43;;
64197;SDS011;50512;53.666;9.700;2024-03-08T11:17:50;26.30;;;11.80;;
64197;SDS011;50512;53.666;9.700;2024-03-08T11:20:20;25.38;;;10.68;;
64197;SDS011;50512;53.666;9.700;2024-03-08T11:22:50;28.55;;;13.52;;
64197;SDS011;50512;53.666;9.700;2024-03-08T11:25:35;24.65;;;11.57;;
64197;SDS011;50512;53.666;9.700;2024-03-08T11:28:06;31.77;;;12.20;;
64197;SDS011;50512;53.666;9.700;2024-03-08T11:30:34;22.45;;;11.90;;
64197;SDS011;50512;53.666;9.700;2024-03-08T11:33:03;22.17;;;11.02;;
64197;SDS011;50512;53.666;9.700;2024-03-08T11:35:30;25.02;;;11.73;;
64197;SDS011;50512;53.666;9.700;2024-03-08T11:37:57;23.63;;;9.75;;
64197;SDS011;50512;53.666;9.700;2024-03-08T11:40:25;24.35;;;11.70;;
64197;SDS011;50512;53.666;9.700;2024-03-08T11:42:54;22.55;;;11.05;;
64197;SDS011;50512;53.666;9.700;2024-03-08T11:45:20;19.90;;;10.30;;
64197;SDS011;50512;53.666;9.700;2024-03-08T11:47:47;24.95;;;10.57;;
64197;SDS011;50512;53.666;9.700;2024-03-08T11:50:13;20.70;;;9.70;;
64197;SDS011;50512;53.666;9.700;2024-03-08T11:52:40;23.00;;;10.48;;
64197;SDS011;50512;53.666;9.700;2024-03-08T11:55:08;15.77;;;7.65;;
64197;SDS011;50512;53.666;9.700;2024-03-08T11:57:34;20.98;;;10.07;;
64197;SDS011;50512;53.666;9.700;2024-03-08T12:00:04;23.33;;;10.75;;
64197;SDS011;50512;53.666;9.700;2024-03-08T12:02:32;18.70;;;10.07;;
64197;SDS011;50512;53.666;9.700;2024-03-08T12:05:00;21.73;;;10.18;;
64197;SDS011;50512;53.666;9.700;2024-03-08T12:07:28;15.75;;;7.25;;
64197;SDS011;50512;53.666;9.700;2024-03-08T12:10:14;22.48;;;9.88;;
64197;SDS011;50512;53.666;9.700;2024-03-08T12:12:42;22.40;;;9.57;;
64197;SDS011;50512;53.666;9.700;2024-03-08T12:15:10;27.42;;;12.77;;
64197;SDS011;50512;53.666;9.700;2024-03-08T12:17:37;21.83;;;9.23;;
64197;SDS011;50512;53.666;9.700;2024-03-08T12:20:11;23.70;;;10.10;;
64197;SDS011;50512;53.666;9.700;2024-03-08T12:22:40;20.52;;;10.25;;
64197;SDS011;50512;53.666;9.700;2024-03-08T12:25:07;25.77;;;11.25;;
64197;SDS011;50512;53.666;9.700;2024-03-08T12:27:36;23.73;;;11.88;;
64197;SDS011;50512;53.666;9.700;2024-03-08T12:30:16;23.50;;;11.13;;
64197;SDS011;50512;53.666;9.700;2024-03-08T12:32:46;16.70;;;8.73;;
64197;SDS011;50512;53.666;9.700;2024-03-08T12:35:14;19.27;;;9.68;;
64197;SDS011;50512;53.666;9.700;2024-03-08T12:37:41;21.45;;;8.50;;
64197;SDS011;50512;53.666;9.700;2024-03-08T12:40:08;21.15;;;9.73;;
64197;SDS011;50512;53.666;9.700;2024-03-08T12:42:38;22.77;;;10.98;;
64197;SDS011;50512;53.666;9.700;2024-03-08T12:45:05;25.35;;;10.93;;
64197;SDS011;50512;53.666;9.700;2024-03-08T12:47:36;23.42;;;9.40;;
64197;SDS011;50512;53.666;9.700;2024-03-08T12:50:03;16.38;;;7.60;;
64197;SDS011;50512;53.666;9.700;2024-03-08T12:52:30;25.38;;;11.90;;
64197;SDS011;50512;53.666;9.700;2024-03-08T12:54:56;28.38;;;12.02;;
64197;SDS011;50512;53.666;9.700;2024-03-08T12:57:22;17.27;;;8.13;;
64197;SDS011;50512;53.666;9.700;2024-03-08T12:59:52;23.83;;;11.20;;
64197;SDS011;50512;53.666;9.700;2024-03-08T13:02:19;15.82;;;7.72;;
64197;SDS011;50512;53.666;9.700;2024-03-08T13:04:49;20.02;;;9.13;;
64197;SDS011;50512;53.666;9.700;2024-03-08T13:07:20;18.73;;;8.63;;
64197;SDS011;50512;53.666;9.700;2024-03-08T13:09:48;21.85;;;9.05;;
64197;SDS011;50512;53.666;9.700;2024-03-08T13:12:15;20.75;;;9.90;;
64197;SDS011;50512;53.666;9.700;2024-03-08T13:14:41;22.73;;;10.93;;
64197;SDS011;50512;53.666;9.700;2024-03-08T13:17:08;22.88;;;10.75;;
64197;SDS011;50512;53.666;9.700;2024-03-08T13:19:36;19.70;;;9.55;;
64197;SDS011;50512;53.666;9.700;2024-03-08T13:22:04;24.35;;;11.70;;
64197;SDS011;50512;53.666;9.700;2024-03-08T13:24:32;29.23;;;11.82;;
64197;SDS011;50512;53.666;9.700;2024-03-08T13:26:58;26.63;;;11.80;;
64197;SDS011;50512;53.666;9.700;2024-03-08T13:29:25;24.52;;;10.88;;
64197;SDS011;50512;53.666;9.700;2024-03-08T13:31:52;21.30;;;9.85;;
64197;SDS011;50512;53.666;9.700;2024-03-08T13:34:20;23.45;;;11.43;;
64197;SDS011;50512;53.666;9.700;2024-03-08T13:36:52;20.80;;;9.50;;
64197;SDS011;50512;53.666;9.700;2024-03-08T13:39:26;22.42;;;12.32;;
64197;SDS011;50512;53.666;9.700;2024-03-08T13:41:54;21.10;;;10.43;;
64197;SDS011;50512;53.666;9.700;2024-03-08T13:44:20;23.92;;;10.93;;
64197;SDS011;50512;53.666;9.700;2024-03-08T13:46:47;20.88;;;9.15;;
64197;SDS011;50512;53.666;9.700;2024-03-08T13:49:16;16.73;;;8.90;;
64197;SDS011;50512;53.666;9.700;2024-03-08T13:51:42;21.63;;;10.32;;
64197;SDS011;50512;53.666;9.700;2024-03-08T13:54:09;21.27;;;10.63;;
64197;SDS011;50512;53.666;9.700;2024-03-08T13:56:37;19.02;;;9.93;;
64197;SDS011;50512;53.666;9.700;2024-03-08T13:59:03;19.80;;;9.63;;
64197;SDS011;50512;53.666;9.700;2024-03-08T14:01:30;24.23;;;11.55;;
64197;SDS011;50512;53.666;9.700;2024-03-08T14:03:57;20.73;;;11.68;;
64197;SDS011;50512;53.666;9.700;2024-03-08T14:06:24;24.40;;;10.45;;
64197;SDS011;50512;53.666;9.700;2024-03-08T14:08:51;24.42;;;11.73;;
64197;SDS011;50512;53.666;9.700;2024-03-08T14:11:18;21.05;;;9.65;;
64197;SDS011;50512;53.666;9.700;2024-03-08T14:13:46;23.13;;;10.40;;
64197;SDS011;50512;53.666;9.700;2024-03-08T14:16:12;23.80;;;10.60;;
64197;SDS011;50512;53.666;9.700;2024-03-08T14:18:40;21.55;;;11.95;;
64197;SDS011;50512;53.666;9.700;2024-03-08T14:21:06;23.88;;;10.45;;
64197;SDS011;50512;53.666;9.700;2024-03-08T14:23:33;20.65;;;10.00;;
64197;SDS011;50512;53.666;9.700;2024-03-08T14:26:01;25.80;;;10.93;;